CheckWX is a tool to help pilots better visualize weather data.  It is not intended as a substitute for an official pre-flight weather briefing.

21:20:46 UTC

KPLN TAF
Pellston Regional of Emmet County Airport
Pellston, Michigan, USA
KPLN 222048Z 2221/2318 19012G22KT 6SM -SHRA BKN030 FM230100 21012G22KT 6SM -SHRA BKN020 FM230700 23013G24KT 6SM -SHRA OVC015 FM231600 26015G23KT P6SM VCSH OVC020

Oct-22@
21:00 UTC

Oct-22 @ 21:00 UTC

Oct-23@
01:00 UTC

Oct-23 @ 01:00 UTC

KPLN 222048Z 2221/2318 19012G22KT 6SM -SHRA BKN030
Wind
  • 190° at 12 KTS
  • {Gusting to 22 KTS
Conditions
Light Rain
Cloud Levels
  • Broken at 3,000' AGL

Oct-23@
01:00 UTC

Oct-23 @ 01:00 UTC

Oct-23@
07:00 UTC

Oct-23 @ 07:00 UTC

FM230100 21012G22KT 6SM -SHRA BKN020

From

From Standard forecast or significant change

Wind
  • 210° at 12 KTS
  • {Gusting to 22 KTS
Conditions
Light Rain
Cloud Levels
  • Broken at 2,000' AGL

Oct-23@
07:00 UTC

Oct-23 @ 07:00 UTC

Oct-23@
16:00 UTC

Oct-23 @ 16:00 UTC

FM230700 23013G24KT 6SM -SHRA OVC015

From

From Standard forecast or significant change

Wind
  • 230° at 13 KTS
  • {Gusting to 24 KTS
Conditions
Light Rain
Cloud Levels
  • Overcast at 1,500' AGL

Oct-23@
16:00 UTC

Oct-23 @ 16:00 UTC

Oct-23@
18:00 UTC

Oct-23 @ 18:00 UTC

FM231600 26015G23KT P6SM VCSH OVC020

From

From Standard forecast or significant change

Wind
  • 260° at 15 KTS
  • {Gusting to 23 KTS
Cloud Levels
  • Overcast at 2,000' AGL